Hauptseite
METAR-TAF:

METAR-TAF

Flughäfen :

Norwich International Airport

Norwich, England

Breite: 52-38N, Länge: 001-18E, Höhe: 14 m

Beobachtung

Neuester Wetterbericht von vor 32 Minuten, um 10:50 UTC
Wind 6 kt aus Südost, variierte zwischen Ost/Nordost und Süd
Temperatur 23°C
Luftfeuchtigkeit 47%
Luftdruck 1019 hPa
Sichtweite 10 km oder mehr
Leicht bewölkt in der Höhe von 4500 ft

METAR: EGSH 191050Z 13006KT 070V190 9999 FEW045 23/11 Q1019 NOSIG

Zeit: 12:22 (11:22 UTC)

Prognose

Neuester Wetterbericht von vor 3 Stunden und 23 Minuten, um 07:59 UTC
Gültige Prognose vom 19 um 09 UTC bis 19 um 18 UTC
Wind 8 kt aus Ost/Südost
Sichtweite 10 km oder mehr
Leicht bewölkt in der Höhe von 4500 ft

TAF: EGSH 190759Z 1909/1918 12008KT 9999 FEW045

Wetterbeobachtungen und Prognosen von mehr als 4000 Flughäfen (METAR und TAF Bericht).

Die verfügbaren Stationen werden durch gelbe und rote Markierungen auf der Karte dargestellt.

Führen Sie die Maus auf sie, um den Namen der Station zu sehen.

Darauf klicken, um die Beobachtung von Wetterbeobachtungen und Prognosen zu sehen.

Um die Karte zu ändern : klicken Sie auf den grünen Tasten mit einem schwarzen Kreuz Zum Vergrößern, auf den grünen Button mit einem Gedankenstrich zu verkleinern, oder auf die grünen Pfeile für benachbarte Karten.


METAR-TAF: